Time;durP1;ratioP1;P1;durP2;ratioP2;P2;SDS_P1;SDS_P2;PMS_P1;PMS_P2;Temp;Humidity;BMP_temperature;BMP_pressure;BME280_temperature;BME280_humidity;BME280_pressure;Samples;Min_cycle;Max_cycle;Signal;HPM_P1;HPM_P2
2022/01/01 00:00:03;;;;;;;52.67;39.63;;;12.60;96.70;;;;;;5074536;28;20485;-73
2022/01/01 00:02:39;;;;;;;44.05;36.75;;;12.60;96.70;;;;;;5078675;28;20453;-72
2022/01/01 00:05:11;;;;;;;45.08;36.83;;;12.60;96.70;;;;;;5076160;28;20421;-73
2022/01/01 00:07:39;;;;;;;46.50;37.47;;;12.60;96.70;;;;;;5073853;28;20509;-72
2022/01/01 00:10:08;;;;;;;48.90;38.20;;;12.60;96.70;;;;;;5075104;28;20119;-73
2022/01/01 00:12:36;;;;;;;41.95;35.70;;;12.60;96.70;;;;;;5077310;28;20234;-72
2022/01/01 00:15:05;;;;;;;45.03;35.90;;;12.60;96.70;;;;;;5073659;28;20035;-72
2022/01/01 00:17:33;;;;;;;47.55;37.97;;;12.60;96.70;;;;;;5060394;28;20036;-72
2022/01/01 00:20:01;;;;;;;47.15;37.88;;;12.60;96.70;;;;;;5062734;28;20040;-73
2022/01/01 00:22:31;;;;;;;46.55;37.17;;;12.60;96.70;;;;;;5073948;28;20048;-72
2022/01/01 00:24:59;;;;;;;42.00;36.80;;;12.60;96.70;;;;;;5097423;28;20043;-73
2022/01/01 00:27:27;;;;;;;43.50;36.10;;;12.60;96.70;;;;;;5080632;28;20044;-72
2022/01/01 00:29:55;;;;;;;43.88;37.42;;;12.60;96.70;;;;;;5081433;28;20040;-72
2022/01/01 00:32:23;;;;;;;43.28;37.15;;;12.60;96.70;;;;;;5080792;28;20129;-72
2022/01/01 00:34:51;;;;;;;48.80;37.53;;;12.60;96.70;;;;;;5074861;28;20534;-72
2022/01/01 00:37:20;;;;;;;45.58;38.75;;;12.60;96.70;;;;;;5072801;28;20522;-72
2022/01/01 00:39:49;;;;;;;45.47;37.35;;;12.60;96.70;;;;;;5071635;28;20105;-72
2022/01/01 00:42:17;;;;;;;44.72;35.97;;;12.60;96.70;;;;;;5072094;28;20036;-72
2022/01/01 00:44:45;;;;;;;43.17;35.40;;;12.60;96.70;;;;;;5075890;28;20126;-72
2022/01/01 00:47:13;;;;;;;41.42;35.17;;;12.60;96.70;;;;;;5071848;28;20036;-73
2022/01/01 00:49:42;;;;;;;40.47;32.78;;;12.60;96.70;;;;;;5072069;28;20725;-72
2022/01/01 00:52:10;;;;;;;40.03;34.10;;;12.60;96.70;;;;;;5070601;28;20040;-72
2022/01/01 00:54:38;;;;;;;41.03;34.45;;;12.60;96.70;;;;;;5072885;28;20040;-72
2022/01/01 00:57:07;;;;;;;39.53;31.98;;;12.60;96.70;;;;;;5054741;28;20071;-73
2022/01/01 00:59:36;;;;;;;40.47;33.38;;;12.60;96.70;;;;;;5077314;28;20040;-72
2022/01/01 01:02:04;;;;;;;40.80;33.53;;;12.60;96.70;;;;;;5071060;28;20113;-73
2022/01/01 01:04:32;;;;;;;39.47;33.70;;;12.70;96.70;;;;;;5073391;28;20135;-72
2022/01/01 01:07:00;;;;;;;38.75;32.78;;;12.60;96.70;;;;;;5070774;28;20039;-73
2022/01/01 01:09:28;;;;;;;37.25;30.67;;;12.70;96.70;;;;;;5059937;28;20043;-72
2022/01/01 01:11:56;;;;;;;39.83;31.75;;;12.70;96.70;;;;;;5077524;28;20144;-72
2022/01/01 01:14:27;;;;;;;40.58;34.38;;;12.60;96.70;;;;;;5076806;28;20047;-72
2022/01/01 01:16:57;;;;;;;42.25;34.58;;;12.60;96.70;;;;;;5079807;28;20046;-72
2022/01/01 01:19:25;;;;;;;42.60;36.63;;;12.60;96.70;;;;;;5082693;28;20046;-72
2022/01/01 01:21:53;;;;;;;46.65;39.33;;;12.70;96.70;;;;;;5068850;28;20032;-72
2022/01/01 01:24:23;;;;;;;50.80;40.40;;;12.60;96.70;;;;;;5084542;28;20127;-72
2022/01/01 01:26:53;;;;;;;47.47;39.00;;;12.60;96.70;;;;;;5070944;28;20055;-72
2022/01/01 01:29:22;;;;;;;52.05;40.45;;;12.60;96.70;;;;;;5078290;28;20043;-73
2022/01/01 01:31:51;;;;;;;53.97;41.25;;;12.60;96.70;;;;;;5069522;28;20523;-72
2022/01/01 01:34:19;;;;;;;51.63;41.55;;;12.60;96.70;;;;;;5081690;28;20155;-72
2022/01/01 01:36:48;;;;;;;48.72;39.35;;;12.60;96.70;;;;;;5075651;28;20037;-73
2022/01/01 01:39:16;;;;;;;53.25;41.88;;;12.60;96.70;;;;;;5081617;28;20044;-72
2022/01/01 01:41:45;;;;;;;53.13;40.70;;;12.60;96.70;;;;;;5077243;28;20051;-72
2022/01/01 01:44:25;;;;;;;47.65;38.92;;;12.60;96.70;;;;;;5081228;28;20101;-72
2022/01/01 01:46:56;;;;;;;47.00;38.40;;;12.60;96.70;;;;;;5074999;28;20035;-72
2022/01/01 01:49:25;;;;;;;45.90;36.47;;;12.60;96.70;;;;;;5087974;28;20093;-72
2022/01/01 01:51:54;;;;;;;43.50;36.45;;;12.60;96.70;;;;;;5072225;28;20116;-72
2022/01/01 01:54:22;;;;;;;46.22;35.95;;;12.60;96.70;;;;;;5074058;28;20040;-73
2022/01/01 01:56:52;;;;;;;43.50;34.65;;;12.50;96.70;;;;;;5071970;28;21033;-72
2022/01/01 01:59:21;;;;;;;42.00;32.53;;;12.50;96.70;;;;;;5067292;28;21194;-72
2022/01/01 02:01:50;;;;;;;42.60;32.35;;;12.50;96.70;;;;;;5072509;28;20044;-71
2022/01/01 02:04:21;;;;;;;38.83;31.75;;;12.50;96.70;;;;;;5068417;28;20577;-73
2022/01/01 02:06:49;;;;;;;40.80;31.88;;;12.40;96.70;;;;;;5077584;28;20608;-73
2022/01/01 02:09:18;;;;;;;40.17;32.78;;;12.40;96.70;;;;;;5074439;28;20588;-72
2022/01/01 02:11:46;;;;;;;40.35;33.25;;;12.40;96.70;;;;;;5072558;28;20051;-73
2022/01/01 02:14:24;;;;;;;42.05;33.35;;;12.40;96.70;;;;;;5068002;28;20040;-72
2022/01/01 02:19:30;;;;;;;51.33;37.53;;;12.40;96.70;;;;;;5077069;28;20055;-73
2022/01/01 02:22:03;;;;;;;44.08;35.40;;;12.40;96.70;;;;;;5070865;28;20497;-72
2022/01/01 02:24:32;;;;;;;46.45;37.47;;;12.40;96.70;;;;;;5069391;28;20059;-72
2022/01/01 02:27:00;;;;;;;49.38;37.97;;;12.20;96.70;;;;;;5072911;28;20062;-72
2022/01/01 02:29:28;;;;;;;47.17;36.55;;;12.30;96.70;;;;;;5060738;28;20242;-72
2022/01/01 02:31:56;;;;;;;47.33;36.55;;;12.30;96.70;;;;;;5072049;28;20122;-72
2022/01/01 02:34:25;;;;;;;45.28;34.83;;;12.30;96.70;;;;;;5067909;28;20067;-72
2022/01/01 02:36:54;;;;;;;44.25;35.38;;;12.30;96.70;;;;;;5075720;28;20036;-72
2022/01/01 02:39:23;;;;;;;41.50;34.70;;;12.30;96.70;;;;;;5070038;28;20442;-73
2022/01/01 02:41:54;;;;;;;46.90;36.05;;;12.30;96.70;;;;;;5082463;28;20435;-72
2022/01/01 02:44:24;;;;;;;47.05;36.53;;;12.30;96.70;;;;;;5072115;28;20056;-72
2022/01/01 02:46:53;;;;;;;47.72;35.35;;;12.30;96.70;;;;;;5093029;28;20051;-72
2022/01/01 02:49:21;;;;;;;43.50;34.05;;;12.30;96.70;;;;;;5078022;28;20521;-72
2022/01/01 02:51:50;;;;;;;42.67;33.53;;;12.30;96.70;;;;;;5075970;28;20414;-72
2022/01/01 02:54:18;;;;;;;40.35;31.65;;;12.30;96.70;;;;;;5071874;28;20148;-72
2022/01/01 02:56:48;;;;;;;38.40;29.70;;;12.30;96.70;;;;;;5071153;28;20496;-72
2022/01/01 02:59:17;;;;;;;35.28;27.83;;;12.30;96.70;;;;;;5072188;28;20457;-73
2022/01/01 03:01:45;;;;;;;36.25;28.92;;;12.30;96.70;;;;;;5074601;28;20143;-72
2022/01/01 03:04:13;;;;;;;33.97;27.55;;;12.30;96.70;;;;;;5071250;28;20044;-72
2022/01/01 03:06:41;;;;;;;36.83;28.10;;;12.30;96.70;;;;;;5077776;28;20123;-72
2022/01/01 03:09:10;;;;;;;33.05;26.58;;;12.30;96.70;;;;;;5071219;28;20041;-72
2022/01/01 03:11:38;;;;;;;31.70;26.13;;;12.30;96.70;;;;;;5081716;28;20044;-72
2022/01/01 03:14:07;;;;;;;32.53;24.95;;;12.30;96.70;;;;;;5059249;28;20472;-72
2022/01/01 03:16:35;;;;;;;29.70;23.92;;;12.30;96.70;;;;;;5070899;28;20055;-72
2022/01/01 03:19:03;;;;;;;31.95;23.08;;;12.30;96.70;;;;;;5069954;28;20036;-73
2022/01/01 03:21:32;;;;;;;28.75;22.98;;;12.20;96.70;;;;;;5073074;28;20128;-72
2022/01/01 03:23:59;;;;;;;27.33;21.33;;;12.20;96.70;;;;;;5070837;28;20041;-72
2022/01/01 03:26:27;;;;;;;30.45;22.83;;;12.20;96.70;;;;;;5062626;28;20055;-72
2022/01/01 03:28:57;;;;;;;27.65;22.23;;;12.20;96.70;;;;;;5077444;28;20044;-72
2022/01/01 03:31:27;;;;;;;25.98;20.80;;;12.20;96.70;;;;;;5065551;28;20058;-72
2022/01/01 03:33:57;;;;;;;28.05;21.13;;;12.20;96.70;;;;;;5082559;28;20040;-72
2022/01/01 03:36:26;;;;;;;24.73;19.75;;;12.20;96.70;;;;;;5072973;28;20087;-72
2022/01/01 03:38:54;;;;;;;28.67;20.50;;;12.20;96.70;;;;;;5077561;28;20528;-72
2022/01/01 03:41:22;;;;;;;25.88;20.70;;;12.20;96.70;;;;;;5070983;28;20139;-72
2022/01/01 03:43:50;;;;;;;25.17;18.88;;;12.20;96.70;;;;;;5073570;28;20047;-72
2022/01/01 03:46:18;;;;;;;24.80;19.88;;;12.20;96.70;;;;;;5074824;28;20035;-72
2022/01/01 03:48:48;;;;;;;28.25;19.55;;;12.10;96.70;;;;;;5080646;28;20151;-72
2022/01/01 03:51:16;;;;;;;24.35;19.85;;;12.10;96.70;;;;;;5076960;28;20840;-72
2022/01/01 03:53:44;;;;;;;23.45;18.77;;;12.10;96.70;;;;;;5071857;28;20040;-72
2022/01/01 03:56:14;;;;;;;24.02;18.83;;;12.20;96.70;;;;;;5069532;28;20032;-72
2022/01/01 03:58:45;;;;;;;23.52;19.38;;;12.20;96.70;;;;;;5081535;28;20047;-72
2022/01/01 04:01:13;;;;;;;23.90;18.17;;;12.10;96.70;;;;;;5082665;28;20584;-72
2022/01/01 04:03:42;;;;;;;24.17;19.58;;;12.10;96.70;;;;;;5071099;28;20036;-72
2022/01/01 04:06:12;;;;;;;23.50;19.35;;;12.10;96.70;;;;;;5075244;28;20040;-72
2022/01/01 04:08:40;;;;;;;26.63;19.60;;;12.10;96.70;;;;;;5076518;28;20084;-72
2022/01/01 04:11:16;;;;;;;25.60;20.00;;;12.10;96.70;;;;;;5075051;28;20287;-72
2022/01/01 04:13:44;;;;;;;25.23;19.45;;;12.10;96.70;;;;;;5074247;28;20481;-72
2022/01/01 04:16:12;;;;;;;24.45;19.15;;;12.10;96.70;;;;;;5079452;28;20398;-72
2022/01/01 04:18:40;;;;;;;26.90;19.92;;;12.10;96.70;;;;;;5067528;28;20045;-73
2022/01/01 04:21:11;;;;;;;25.40;18.77;;;12.10;96.70;;;;;;5075799;28;20051;-72
2022/01/01 04:23:39;;;;;;;24.05;19.27;;;12.10;96.70;;;;;;5066422;28;20040;-73
2022/01/01 04:26:08;;;;;;;25.13;18.95;;;12.10;96.70;;;;;;5072013;28;20055;-72
2022/01/01 04:28:41;;;;;;;25.00;18.38;;;12.10;96.70;;;;;;5082845;28;20051;-72
2022/01/01 04:31:09;;;;;;;24.52;18.35;;;12.10;96.70;;;;;;5095781;27;20455;-72
2022/01/01 04:33:37;;;;;;;23.90;18.70;;;12.10;96.70;;;;;;5066898;28;20052;-73
2022/01/01 04:36:05;;;;;;;24.17;19.20;;;12.20;96.70;;;;;;5078862;28;20071;-72
2022/01/01 04:38:40;;;;;;;22.95;17.65;;;12.20;96.70;;;;;;5084604;28;20040;-72
2022/01/01 04:41:10;;;;;;;30.40;19.45;;;12.10;96.70;;;;;;5069913;28;20040;-74
2022/01/01 04:43:43;;;;;;;27.35;19.65;;;12.10;96.70;;;;;;5077896;28;20052;-72
2022/01/01 04:46:14;;;;;;;30.17;20.17;;;12.10;96.70;;;;;;5077438;28;20051;-72
2022/01/01 04:48:43;;;;;;;28.60;20.73;;;12.10;96.70;;;;;;5075685;28;20141;-72
2022/01/01 04:51:12;;;;;;;28.90;21.00;;;12.10;96.70;;;;;;5074262;28;20040;-73
2022/01/01 04:53:44;;;;;;;25.98;20.33;;;12.10;96.70;;;;;;5078979;28;20039;-73
2022/01/01 04:56:18;;;;;;;28.42;20.92;;;12.20;96.70;;;;;;5079790;28;20044;-72
2022/01/01 04:58:49;;;;;;;29.55;21.15;;;12.20;96.70;;;;;;5059246;28;20040;-72
2022/01/01 05:01:19;;;;;;;27.40;21.05;;;12.20;96.70;;;;;;5071483;28;20424;-72
2022/01/01 05:03:47;;;;;;;29.50;19.88;;;12.20;96.70;;;;;;5073540;28;20043;-72
2022/01/01 05:06:16;;;;;;;27.65;20.05;;;12.20;96.70;;;;;;5070186;28;20573;-73
2022/01/01 05:08:47;;;;;;;27.35;19.95;;;12.20;96.70;;;;;;5073276;28;20100;-72
2022/01/01 05:11:15;;;;;;;25.50;19.35;;;12.10;96.70;;;;;;5075306;28;20086;-72
2022/01/01 05:13:43;;;;;;;25.45;19.27;;;12.20;96.70;;;;;;5069898;28;20559;-72
2022/01/01 05:16:15;;;;;;;25.05;19.30;;;12.10;96.70;;;;;;5080087;28;20579;-72
2022/01/01 05:18:43;;;;;;;25.40;19.73;;;12.10;96.70;;;;;;5077837;28;20075;-72
2022/01/01 05:21:11;;;;;;;25.80;19.63;;;12.10;96.70;;;;;;5068049;28;20032;-72
2022/01/01 05:23:40;;;;;;;26.63;19.98;;;12.10;96.70;;;;;;5073957;28;20063;-72
2022/01/01 05:26:09;;;;;;;27.42;21.10;;;12.10;96.70;;;;;;5071141;28;20121;-73
2022/01/01 05:28:39;;;;;;;26.85;20.02;;;12.10;96.70;;;;;;5076556;28;20042;-72
2022/01/01 05:31:07;;;;;;;27.77;20.90;;;12.10;96.70;;;;;;5080227;28;20046;-72
2022/01/01 05:33:35;;;;;;;27.92;20.73;;;12.10;96.70;;;;;;5077612;28;20047;-73
2022/01/01 05:36:03;;;;;;;26.25;19.60;;;12.10;96.70;;;;;;5070836;28;20040;-72
2022/01/01 05:38:31;;;;;;;23.42;18.70;;;12.10;96.70;;;;;;5077352;28;20522;-72
2022/01/01 05:40:59;;;;;;;26.80;20.65;;;12.10;96.70;;;;;;5068405;28;20400;-72
2022/01/01 05:43:29;;;;;;;25.58;19.85;;;12.10;96.70;;;;;;5071272;28;20537;-72
2022/01/01 05:45:57;;;;;;;23.65;19.48;;;12.10;96.70;;;;;;5072441;28;20127;-72
2022/01/01 05:48:25;;;;;;;25.25;20.48;;;12.10;96.70;;;;;;5071032;28;20554;-72
2022/01/01 05:50:53;;;;;;;25.10;20.30;;;12.10;96.70;;;;;;5066608;28;20406;-72
2022/01/01 05:53:22;;;;;;;28.10;20.80;;;12.10;96.70;;;;;;5076492;28;20048;-72
2022/01/01 05:55:52;;;;;;;30.10;21.33;;;12.10;96.70;;;;;;5081039;28;20046;-72
2022/01/01 05:58:20;;;;;;;24.90;20.58;;;12.10;96.70;;;;;;5074942;28;20056;-72
2022/01/01 06:00:50;;;;;;;24.02;20.17;;;12.10;96.70;;;;;;5070049;28;20117;-73
2022/01/01 06:03:18;;;;;;;28.23;20.55;;;12.10;96.70;;;;;;5075353;28;20040;-72
2022/01/01 06:05:51;;;;;;;28.70;20.90;;;12.10;96.70;;;;;;5072548;28;20036;-72
2022/01/01 06:08:19;;;;;;;26.52;21.30;;;12.10;96.70;;;;;;5096800;28;20048;-72
2022/01/01 06:10:48;;;;;;;27.27;21.58;;;12.10;96.70;;;;;;5080689;28;20040;-72
2022/01/01 06:13:16;;;;;;;25.70;21.85;;;12.10;96.70;;;;;;5079544;28;20044;-72
2022/01/01 06:15:44;;;;;;;27.83;22.33;;;12.10;96.70;;;;;;5077209;28;20037;-72
2022/01/01 06:18:13;;;;;;;29.65;22.60;;;12.10;96.70;;;;;;5076017;28;20040;-72
2022/01/01 06:20:43;;;;;;;29.52;23.40;;;12.10;96.70;;;;;;5078174;28;20039;-72
2022/01/01 06:23:11;;;;;;;28.95;23.23;;;12.10;96.70;;;;;;5076303;28;20058;-72
2022/01/01 06:25:39;;;;;;;27.67;22.33;;;12.10;96.70;;;;;;5079726;28;20444;-72
2022/01/01 06:28:07;;;;;;;28.77;23.33;;;12.10;96.70;;;;;;5071468;28;20505;-72
2022/01/01 06:30:35;;;;;;;32.00;22.67;;;12.10;96.70;;;;;;5067731;28;20121;-72
2022/01/01 06:33:10;;;;;;;33.80;24.55;;;12.10;96.70;;;;;;5076145;28;20043;-72
2022/01/01 06:35:40;;;;;;;28.38;22.83;;;12.10;96.70;;;;;;5072865;28;20089;-72
2022/01/01 06:38:09;;;;;;;27.70;22.60;;;12.10;96.70;;;;;;5067000;28;20036;-72
2022/01/01 06:40:41;;;;;;;29.52;22.40;;;12.10;96.70;;;;;;5062400;28;20113;-72
2022/01/01 06:43:11;;;;;;;26.40;22.83;;;12.00;96.70;;;;;;5072309;28;20558;-73
2022/01/01 06:45:42;;;;;;;28.90;22.85;;;12.00;96.70;;;;;;5073655;28;20037;-72
2022/01/01 06:48:10;;;;;;;27.58;22.77;;;12.00;96.70;;;;;;5072053;28;20123;-72
2022/01/01 06:50:40;;;;;;;27.92;22.58;;;12.00;96.70;;;;;;5072155;28;20040;-72
2022/01/01 06:53:11;;;;;;;28.88;21.85;;;12.00;96.70;;;;;;5065503;28;20048;-72
2022/01/01 06:55:39;;;;;;;29.90;22.38;;;12.00;96.70;;;;;;5076311;28;20515;-72
2022/01/01 06:58:07;;;;;;;25.80;20.90;;;12.00;96.70;;;;;;5071988;28;20044;-72
2022/01/01 07:00:36;;;;;;;26.73;21.20;;;12.00;96.70;;;;;;5076783;28;20501;-72
2022/01/01 07:03:04;;;;;;;27.17;21.88;;;12.00;96.70;;;;;;5071075;28;20300;-73
2022/01/01 07:05:32;;;;;;;28.02;21.65;;;12.00;96.70;;;;;;5071131;28;20040;-72
2022/01/01 07:08:02;;;;;;;24.25;20.20;;;12.00;96.70;;;;;;5072858;28;20036;-72
2022/01/01 07:10:30;;;;;;;26.48;21.48;;;12.00;96.70;;;;;;5080076;28;20408;-72
2022/01/01 07:13:00;;;;;;;25.17;20.45;;;12.00;96.70;;;;;;5070140;28;20081;-72
2022/01/01 07:15:28;;;;;;;25.58;19.55;;;12.00;96.70;;;;;;5076854;28;20040;-72
2022/01/01 07:17:56;;;;;;;26.20;20.48;;;12.00;96.70;;;;;;5079775;28;20063;-72
2022/01/01 07:20:24;;;;;;;25.20;19.98;;;12.00;96.70;;;;;;5074279;28;20041;-72
2022/01/01 07:22:55;;;;;;;22.35;18.83;;;12.00;96.70;;;;;;5073252;28;20432;-73
2022/01/01 07:25:24;;;;;;;24.55;19.33;;;12.00;96.70;;;;;;5085360;28;20524;-72
2022/01/01 07:27:52;;;;;;;23.35;19.80;;;12.00;96.70;;;;;;5077645;28;20066;-72
2022/01/01 07:30:20;;;;;;;24.00;18.60;;;12.00;96.70;;;;;;5082999;28;20157;-72
2022/01/01 07:32:48;;;;;;;23.10;18.23;;;12.00;96.70;;;;;;5079477;28;20036;-72
2022/01/01 07:35:18;;;;;;;20.33;18.02;;;12.00;96.70;;;;;;5081991;28;20153;-72
2022/01/01 07:37:46;;;;;;;23.90;18.48;;;12.00;96.70;;;;;;5077634;28;20032;-72
2022/01/01 07:40:16;;;;;;;23.30;19.23;;;12.10;96.70;;;;;;5072684;28;20037;-72
2022/01/01 07:42:46;;;;;;;23.20;17.42;;;12.10;96.70;;;;;;5072647;28;20489;-72
2022/01/01 07:45:16;;;;;;;21.20;17.83;;;12.10;96.70;;;;;;5083952;28;20044;-72
2022/01/01 07:47:44;;;;;;;23.50;18.05;;;12.10;96.70;;;;;;5074600;28;20051;-72
2022/01/01 07:50:12;;;;;;;18.75;16.02;;;12.10;96.70;;;;;;5073674;28;20510;-72
2022/01/01 07:52:40;;;;;;;23.75;18.50;;;12.10;96.70;;;;;;5076433;28;20667;-72
2022/01/01 07:55:09;;;;;;;20.25;16.95;;;12.10;96.70;;;;;;5075471;28;20405;-72
2022/01/01 07:57:37;;;;;;;20.75;16.90;;;12.10;96.70;;;;;;5073946;28;20127;-72
2022/01/01 08:00:08;;;;;;;22.02;17.17;;;12.10;96.70;;;;;;5074873;28;20047;-72
2022/01/01 08:02:40;;;;;;;19.20;17.17;;;12.20;96.70;;;;;;5075420;28;20036;-72
2022/01/01 08:05:10;;;;;;;20.95;18.17;;;12.20;96.70;;;;;;5075064;28;20071;-73
2022/01/01 08:07:38;;;;;;;21.08;17.33;;;12.20;96.70;;;;;;5077510;28;20047;-72
2022/01/01 08:10:26;;;;;;;20.48;16.48;;;12.20;96.70;;;;;;5077199;28;20063;-72
2022/01/01 08:12:53;;;;;;;20.90;17.17;;;12.20;96.70;;;;;;5081065;28;20550;-72
2022/01/01 08:15:23;;;;;;;21.75;17.58;;;12.30;96.70;;;;;;5069424;28;20059;-72
2022/01/01 08:17:51;;;;;;;20.17;16.63;;;12.30;96.70;;;;;;5080765;28;20043;-72
2022/01/01 08:20:19;;;;;;;20.98;17.10;;;12.30;96.70;;;;;;5081251;28;20406;-72
2022/01/01 08:22:47;;;;;;;21.23;17.17;;;12.30;96.70;;;;;;5070939;28;20043;-72
2022/01/01 08:25:16;;;;;;;19.48;16.75;;;12.40;96.70;;;;;;5071984;28;20386;-72
2022/01/01 08:27:44;;;;;;;19.83;16.17;;;12.40;96.70;;;;;;5075660;28;20401;-72
2022/01/01 08:30:14;;;;;;;20.70;18.30;;;12.40;96.70;;;;;;5073842;28;20511;-72
2022/01/01 08:32:44;;;;;;;22.13;17.83;;;12.40;96.70;;;;;;5073413;28;20046;-72
2022/01/01 08:35:11;;;;;;;22.70;19.25;;;12.40;96.70;;;;;;5070296;28;20036;-73
2022/01/01 08:37:40;;;;;;;20.88;18.02;;;12.40;96.70;;;;;;5073354;28;20049;-72
2022/01/01 08:40:09;;;;;;;20.02;17.05;;;12.40;96.70;;;;;;5072475;28;20055;-72
2022/01/01 08:42:37;;;;;;;20.50;17.58;;;12.40;96.70;;;;;;5081409;28;20056;-72
2022/01/01 08:45:05;;;;;;;19.95;17.35;;;12.40;96.70;;;;;;5075217;28;20093;-72
2022/01/01 08:47:33;;;;;;;22.27;18.05;;;12.50;96.70;;;;;;5069790;28;20156;-72
2022/01/01 08:50:04;;;;;;;19.30;16.90;;;12.50;96.70;;;;;;5058773;28;20048;-72
2022/01/01 08:52:32;;;;;;;21.92;18.52;;;12.50;96.70;;;;;;5081931;28;20447;-72
2022/01/01 08:55:00;;;;;;;21.00;17.83;;;12.60;96.70;;;;;;5076984;28;20121;-72
2022/01/01 08:57:30;;;;;;;20.55;16.85;;;12.60;96.70;;;;;;5067783;28;20456;-72
2022/01/01 08:59:58;;;;;;;21.73;18.00;;;12.60;96.70;;;;;;5068987;28;20063;-72
2022/01/01 09:02:26;;;;;;;19.88;16.83;;;12.60;96.70;;;;;;5068764;28;20055;-72
2022/01/01 09:04:54;;;;;;;19.30;17.10;;;12.60;96.70;;;;;;5071803;28;20172;-72
2022/01/01 09:07:28;;;;;;;19.60;17.45;;;12.70;96.70;;;;;;5071944;28;20475;-72
2022/01/01 09:09:56;;;;;;;22.00;18.27;;;12.70;96.70;;;;;;5075602;28;20044;-72
2022/01/01 09:12:24;;;;;;;21.42;17.45;;;12.70;96.70;;;;;;5076950;28;20059;-72
2022/01/01 09:14:53;;;;;;;23.05;18.02;;;12.70;96.70;;;;;;5069201;28;20056;-72
2022/01/01 09:17:21;;;;;;;26.75;18.42;;;12.70;96.70;;;;;;5077768;28;20036;-72
2022/01/01 09:19:49;;;;;;;22.13;17.50;;;12.70;96.70;;;;;;5074142;28;20110;-72
2022/01/01 09:22:19;;;;;;;22.33;17.77;;;12.70;96.70;;;;;;5084142;28;20507;-72
2022/01/01 09:24:49;;;;;;;21.48;18.38;;;12.80;96.70;;;;;;5078390;28;20131;-72
2022/01/01 09:27:17;;;;;;;20.92;17.10;;;12.80;96.70;;;;;;5082361;28;20433;-72
2022/01/01 09:29:45;;;;;;;20.58;17.33;;;12.80;96.70;;;;;;5075646;28;20374;-72
2022/01/01 09:32:13;;;;;;;21.17;17.50;;;12.80;96.70;;;;;;5065625;28;20036;-72
2022/01/01 09:34:44;;;;;;;20.33;17.27;;;12.80;96.70;;;;;;5077015;28;20044;-73
2022/01/01 09:37:12;;;;;;;20.70;17.70;;;12.80;96.70;;;;;;5067472;28;20615;-72
2022/01/01 09:39:40;;;;;;;20.08;16.10;;;12.90;96.70;;;;;;5076194;28;20041;-72
2022/01/01 09:42:11;;;;;;;20.98;17.13;;;12.90;96.70;;;;;;5070749;28;20040;-72
2022/01/01 09:44:39;;;;;;;21.33;18.27;;;12.90;96.70;;;;;;5073059;28;20036;-72
2022/01/01 09:47:08;;;;;;;19.52;16.40;;;12.90;96.70;;;;;;5072436;28;20091;-72
2022/01/01 09:49:36;;;;;;;21.08;17.95;;;12.90;96.70;;;;;;5076489;28;20041;-72
2022/01/01 09:52:05;;;;;;;23.60;18.92;;;12.90;96.70;;;;;;5093007;28;20266;-72
2022/01/01 09:54:34;;;;;;;20.60;17.40;;;12.90;96.70;;;;;;5068893;28;20119;-72
2022/01/01 09:57:03;;;;;;;24.52;18.58;;;12.90;96.70;;;;;;5069307;28;20041;-72
2022/01/01 09:59:33;;;;;;;22.35;18.30;;;13.00;96.70;;;;;;5081338;28;20054;-72
2022/01/01 10:02:02;;;;;;;22.63;19.20;;;13.00;96.70;;;;;;5068791;28;20032;-72
2022/01/01 10:04:40;;;;;;;22.15;18.02;;;13.00;96.70;;;;;;5067903;28;20498;-72
2022/01/01 10:07:08;;;;;;;23.20;17.92;;;13.00;96.70;;;;;;5075343;28;20040;-72
2022/01/01 10:09:38;;;;;;;19.88;16.65;;;13.10;96.70;;;;;;5081476;28;20225;-72
2022/01/01 10:12:10;;;;;;;21.35;18.00;;;13.10;96.70;;;;;;5073702;28;20041;-72
2022/01/01 10:14:40;;;;;;;21.05;16.90;;;13.10;96.70;;;;;;5074097;28;20063;-72
2022/01/01 10:17:14;;;;;;;20.58;16.70;;;13.10;96.70;;;;;;5077788;28;20036;-72
2022/01/01 10:19:42;;;;;;;21.90;17.35;;;13.10;96.70;;;;;;5080025;28;20178;-72
2022/01/01 10:22:14;;;;;;;21.67;17.33;;;13.10;96.70;;;;;;5071238;28;20052;-72
2022/01/01 10:27:42;;;;;;;20.73;16.95;;;13.10;96.70;;;;;;5075905;28;20089;-72
2022/01/01 10:30:18;;;;;;;21.77;17.05;;;13.20;96.70;;;;;;5080600;28;20036;-72
2022/01/01 10:33:10;;;;;;;20.40;16.20;;;13.20;96.70;;;;;;5070538;28;20588;-73
2022/01/01 10:35:41;;;;;;;20.50;16.52;;;13.20;96.70;;;;;;5071299;28;20139;-72
2022/01/01 10:38:15;;;;;;;21.92;17.17;;;13.20;96.70;;;;;;5097152;28;20105;-72
2022/01/01 10:40:43;;;;;;;18.25;16.35;;;13.20;96.70;;;;;;5079377;28;20047;-72
2022/01/01 10:43:13;;;;;;;19.55;15.93;;;13.30;96.70;;;;;;5067074;28;20036;-72
2022/01/01 10:45:47;;;;;;;19.42;16.15;;;13.30;96.70;;;;;;5082569;28;20040;-72
2022/01/01 10:48:21;;;;;;;18.88;15.18;;;13.30;96.70;;;;;;5084650;28;20040;-72
2022/01/01 10:50:51;;;;;;;19.92;16.50;;;13.30;96.70;;;;;;5082796;28;20044;-72
2022/01/01 10:53:24;;;;;;;18.67;15.82;;;13.30;96.70;;;;;;5071690;28;20274;-72
2022/01/01 10:55:54;;;;;;;19.83;15.60;;;13.30;96.70;;;;;;5075334;28;20479;-72
2022/01/01 10:58:25;;;;;;;20.25;16.10;;;13.30;96.70;;;;;;5072051;28;20040;-72
2022/01/01 11:00:59;;;;;;;20.48;16.40;;;13.40;96.70;;;;;;5073015;28;20064;-72
2022/01/01 11:03:28;;;;;;;20.27;16.33;;;13.40;96.70;;;;;;5072873;28;20123;-72
2022/01/01 11:06:04;;;;;;;17.98;14.63;;;13.40;96.70;;;;;;5081601;28;20078;-72
2022/01/01 11:08:33;;;;;;;21.38;15.63;;;13.40;96.70;;;;;;5073398;28;20044;-73
2022/01/01 11:11:01;;;;;;;18.25;15.13;;;13.40;96.70;;;;;;5081477;28;20508;-72
2022/01/01 11:13:30;;;;;;;18.05;16.10;;;13.40;96.70;;;;;;5077260;28;20039;-72
2022/01/01 11:16:00;;;;;;;18.92;16.08;;;13.50;96.70;;;;;;5075997;28;20072;-72
2022/01/01 11:18:29;;;;;;;20.95;16.50;;;13.50;96.70;;;;;;5076387;28;20050;-72
2022/01/01 11:20:58;;;;;;;19.90;16.70;;;13.50;96.70;;;;;;5072557;28;20064;-72
2022/01/01 11:23:27;;;;;;;20.58;16.83;;;13.50;96.70;;;;;;5074729;28;20583;-72
2022/01/01 11:25:55;;;;;;;20.20;16.83;;;13.50;96.70;;;;;;5076593;28;20090;-72
2022/01/01 11:28:23;;;;;;;20.85;17.35;;;13.50;96.70;;;;;;5069447;28;20093;-71
2022/01/01 11:31:02;;;;;;;22.27;17.63;;;13.50;96.70;;;;;;5069280;28;20196;-72
2022/01/01 11:33:32;;;;;;;18.75;16.10;;;13.50;96.70;;;;;;5074200;28;20039;-72
2022/01/01 11:36:01;;;;;;;18.98;16.05;;;13.50;96.70;;;;;;5060313;28;20622;-72
2022/01/01 11:38:32;;;;;;;20.67;16.52;;;13.50;96.70;;;;;;5071930;28;20040;-72
2022/01/01 11:41:04;;;;;;;18.42;15.52;;;13.50;96.70;;;;;;5079697;28;20068;-72
2022/01/01 11:43:40;;;;;;;19.27;15.48;;;13.50;96.70;;;;;;5077650;28;20252;-72
2022/01/01 11:46:12;;;;;;;20.00;16.35;;;13.50;96.70;;;;;;5078879;28;20131;-72
2022/01/01 11:48:59;;;;;;;18.95;15.27;;;13.50;96.70;;;;;;5079394;28;20516;-72
2022/01/01 11:51:35;;;;;;;20.48;17.25;;;13.60;96.70;;;;;;5071172;28;20047;-72
2022/01/01 11:54:20;;;;;;;18.42;15.73;;;13.60;96.70;;;;;;5075809;28;20055;-72
2022/01/01 11:57:00;;;;;;;20.70;16.00;;;13.60;96.70;;;;;;5071796;28;20112;-72
2022/01/01 11:59:29;;;;;;;17.95;14.85;;;13.60;96.70;;;;;;5100162;27;20556;-72
2022/01/01 12:02:01;;;;;;;18.13;14.93;;;13.60;96.70;;;;;;5081338;28;20101;-72
2022/01/01 12:04:36;;;;;;;17.42;14.35;;;13.60;96.70;;;;;;5065752;28;20048;-72
2022/01/01 12:07:12;;;;;;;19.23;14.43;;;13.60;96.70;;;;;;5072769;28;20036;-72
2022/01/01 12:10:11;;;;;;;18.83;15.13;;;13.60;96.70;;;;;;5076438;28;20044;-72
2022/01/01 12:12:42;;;;;;;16.63;13.85;;;13.70;96.70;;;;;;5080682;28;20040;-72
2022/01/01 12:15:21;;;;;;;17.02;14.60;;;13.70;96.70;;;;;;5067917;28;20056;-72
2022/01/01 12:17:53;;;;;;;17.38;13.75;;;13.70;96.70;;;;;;5076520;28;20047;-72
2022/01/01 12:20:23;;;;;;;17.23;14.25;;;13.70;96.70;;;;;;5072428;28;20068;-72
2022/01/01 12:22:52;;;;;;;16.77;13.00;;;13.70;96.70;;;;;;5078899;28;20036;-72
2022/01/01 12:25:24;;;;;;;16.35;13.50;;;13.70;96.70;;;;;;5071060;28;20451;-72
2022/01/01 12:27:54;;;;;;;17.02;14.05;;;13.70;96.70;;;;;;5071447;28;20512;-72
2022/01/01 12:30:33;;;;;;;18.40;14.38;;;13.70;96.70;;;;;;5075289;28;20047;-72
2022/01/01 12:33:04;;;;;;;17.80;14.27;;;13.70;96.70;;;;;;5076905;28;20076;-72
2022/01/01 12:35:48;;;;;;;19.50;16.63;;;13.80;96.70;;;;;;5079263;28;20053;-72
2022/01/01 12:38:19;;;;;;;21.40;16.52;;;13.70;96.70;;;;;;5067792;28;20045;-72
2022/01/01 12:41:03;;;;;;;21.65;17.33;;;13.70;96.70;;;;;;5074229;28;20527;-72
2022/01/01 12:43:42;;;;;;;22.65;17.80;;;13.70;96.70;;;;;;5071263;28;20051;-72
2022/01/01 12:46:12;;;;;;;21.30;16.40;;;13.70;96.70;;;;;;5078209;28;20039;-72